sensor_id;sensor_type;location;lat;lon;timestamp;P1;durP1;ratioP1;P2;durP2;ratioP2
8777;SDS011;4425;50.872;4.712;2023-01-13T00:01:07;6.93;;;2.53;;
8777;SDS011;4425;50.872;4.712;2023-01-13T00:03:36;11.60;;;2.23;;
8777;SDS011;4425;50.872;4.712;2023-01-13T00:06:03;7.60;;;2.70;;
8777;SDS011;4425;50.872;4.712;2023-01-13T00:08:32;9.30;;;2.80;;
8777;SDS011;4425;50.872;4.712;2023-01-13T00:11:00;9.63;;;2.50;;
8777;SDS011;4425;50.872;4.712;2023-01-13T00:13:27;10.33;;;2.60;;
8777;SDS011;4425;50.872;4.712;2023-01-13T00:15:56;8.03;;;2.87;;
8777;SDS011;4425;50.872;4.712;2023-01-13T00:18:26;10.07;;;2.40;;
8777;SDS011;4425;50.872;4.712;2023-01-13T00:20:57;7.43;;;2.57;;
8777;SDS011;4425;50.872;4.712;2023-01-13T00:23:28;7.43;;;2.33;;
8777;SDS011;4425;50.872;4.712;2023-01-13T00:26:19;7.97;;;2.37;;
8777;SDS011;4425;50.872;4.712;2023-01-13T00:28:48;9.93;;;2.67;;
8777;SDS011;4425;50.872;4.712;2023-01-13T00:31:16;13.63;;;2.80;;
8777;SDS011;4425;50.872;4.712;2023-01-13T00:33:46;15.60;;;3.63;;
8777;SDS011;4425;50.872;4.712;2023-01-13T00:36:13;12.37;;;2.90;;
8777;SDS011;4425;50.872;4.712;2023-01-13T00:38:41;12.83;;;3.37;;
8777;SDS011;4425;50.872;4.712;2023-01-13T00:41:09;10.77;;;2.97;;
8777;SDS011;4425;50.872;4.712;2023-01-13T00:43:38;14.87;;;3.63;;
8777;SDS011;4425;50.872;4.712;2023-01-13T00:46:07;19.53;;;3.60;;
8777;SDS011;4425;50.872;4.712;2023-01-13T00:48:36;15.43;;;3.50;;
8777;SDS011;4425;50.872;4.712;2023-01-13T00:51:06;14.67;;;3.40;;
8777;SDS011;4425;50.872;4.712;2023-01-13T00:53:36;17.30;;;3.80;;
8777;SDS011;4425;50.872;4.712;2023-01-13T00:56:05;19.97;;;4.23;;
8777;SDS011;4425;50.872;4.712;2023-01-13T00:58:34;19.47;;;3.97;;
8777;SDS011;4425;50.872;4.712;2023-01-13T01:01:02;17.20;;;4.33;;
8777;SDS011;4425;50.872;4.712;2023-01-13T01:03:30;17.43;;;4.10;;
8777;SDS011;4425;50.872;4.712;2023-01-13T01:06:02;13.30;;;2.87;;
8777;SDS011;4425;50.872;4.712;2023-01-13T01:08:33;12.90;;;3.40;;
8777;SDS011;4425;50.872;4.712;2023-01-13T01:11:01;17.63;;;3.67;;
8777;SDS011;4425;50.872;4.712;2023-01-13T01:13:30;15.10;;;4.30;;
8777;SDS011;4425;50.872;4.712;2023-01-13T01:15:58;14.87;;;3.90;;
8777;SDS011;4425;50.872;4.712;2023-01-13T01:18:27;16.43;;;3.57;;
8777;SDS011;4425;50.872;4.712;2023-01-13T01:20:58;13.80;;;3.07;;
8777;SDS011;4425;50.872;4.712;2023-01-13T01:23:27;16.10;;;4.13;;
8777;SDS011;4425;50.872;4.712;2023-01-13T01:25:58;13.13;;;3.10;;
8777;SDS011;4425;50.872;4.712;2023-01-13T01:28:26;16.73;;;3.57;;
8777;SDS011;4425;50.872;4.712;2023-01-13T01:30:56;17.13;;;3.70;;
8777;SDS011;4425;50.872;4.712;2023-01-13T01:33:24;17.17;;;3.50;;
8777;SDS011;4425;50.872;4.712;2023-01-13T01:35:52;10.60;;;3.37;;
8777;SDS011;4425;50.872;4.712;2023-01-13T01:38:19;18.03;;;3.23;;
8777;SDS011;4425;50.872;4.712;2023-01-13T01:40:48;13.90;;;3.57;;
8777;SDS011;4425;50.872;4.712;2023-01-13T01:43:17;11.47;;;3.23;;
8777;SDS011;4425;50.872;4.712;2023-01-13T01:46:03;11.23;;;2.73;;
8777;SDS011;4425;50.872;4.712;2023-01-13T01:48:33;12.43;;;3.00;;
8777;SDS011;4425;50.872;4.712;2023-01-13T01:51:04;8.77;;;2.50;;
8777;SDS011;4425;50.872;4.712;2023-01-13T01:53:35;8.20;;;2.40;;
8777;SDS011;4425;50.872;4.712;2023-01-13T01:56:04;13.20;;;2.83;;
8777;SDS011;4425;50.872;4.712;2023-01-13T01:58:34;6.03;;;2.17;;
8777;SDS011;4425;50.872;4.712;2023-01-13T02:01:05;7.63;;;2.33;;
8777;SDS011;4425;50.872;4.712;2023-01-13T02:03:34;13.10;;;2.57;;
8777;SDS011;4425;50.872;4.712;2023-01-13T02:06:05;13.20;;;2.57;;
8777;SDS011;4425;50.872;4.712;2023-01-13T02:08:32;9.10;;;2.20;;
8777;SDS011;4425;50.872;4.712;2023-01-13T02:11:04;9.77;;;2.17;;
8777;SDS011;4425;50.872;4.712;2023-01-13T02:13:51;8.93;;;2.53;;
8777;SDS011;4425;50.872;4.712;2023-01-13T02:16:20;8.83;;;2.50;;
8777;SDS011;4425;50.872;4.712;2023-01-13T02:18:52;6.40;;;2.30;;
8777;SDS011;4425;50.872;4.712;2023-01-13T02:21:48;10.53;;;2.77;;
8777;SDS011;4425;50.872;4.712;2023-01-13T02:24:49;11.87;;;3.03;;
8777;SDS011;4425;50.872;4.712;2023-01-13T02:30:43;11.23;;;2.73;;
8777;SDS011;4425;50.872;4.712;2023-01-13T02:33:38;14.30;;;3.13;;
8777;SDS011;4425;50.872;4.712;2023-01-13T02:36:16;12.70;;;3.23;;
8777;SDS011;4425;50.872;4.712;2023-01-13T02:38:50;15.03;;;3.13;;
8777;SDS011;4425;50.872;4.712;2023-01-13T02:41:21;9.67;;;2.87;;
8777;SDS011;4425;50.872;4.712;2023-01-13T02:44:11;12.73;;;3.03;;
8777;SDS011;4425;50.872;4.712;2023-01-13T02:46:48;13.83;;;3.30;;
8777;SDS011;4425;50.872;4.712;2023-01-13T02:49:23;14.20;;;3.20;;
8777;SDS011;4425;50.872;4.712;2023-01-13T02:51:57;19.33;;;3.70;;
8777;SDS011;4425;50.872;4.712;2023-01-13T02:54:28;12.20;;;3.03;;
8777;SDS011;4425;50.872;4.712;2023-01-13T02:56:59;12.53;;;3.30;;
8777;SDS011;4425;50.872;4.712;2023-01-13T02:59:28;17.20;;;3.53;;
8777;SDS011;4425;50.872;4.712;2023-01-13T03:01:58;18.43;;;3.67;;
8777;SDS011;4425;50.872;4.712;2023-01-13T03:07:30;20.50;;;4.07;;
8777;SDS011;4425;50.872;4.712;2023-01-13T03:10:23;15.07;;;3.40;;
8777;SDS011;4425;50.872;4.712;2023-01-13T03:12:59;13.40;;;3.30;;
8777;SDS011;4425;50.872;4.712;2023-01-13T03:15:36;14.07;;;3.50;;
8777;SDS011;4425;50.872;4.712;2023-01-13T03:18:16;12.63;;;3.27;;
8777;SDS011;4425;50.872;4.712;2023-01-13T03:20:48;19.10;;;3.83;;
8777;SDS011;4425;50.872;4.712;2023-01-13T03:23:30;15.47;;;3.50;;
8777;SDS011;4425;50.872;4.712;2023-01-13T03:26:04;9.27;;;3.03;;
8777;SDS011;4425;50.872;4.712;2023-01-13T03:28:41;11.40;;;3.13;;
8777;SDS011;4425;50.872;4.712;2023-01-13T03:31:14;15.53;;;3.30;;
8777;SDS011;4425;50.872;4.712;2023-01-13T03:33:47;18.07;;;3.80;;
8777;SDS011;4425;50.872;4.712;2023-01-13T03:36:21;11.10;;;3.00;;
8777;SDS011;4425;50.872;4.712;2023-01-13T03:38:51;17.50;;;3.73;;
8777;SDS011;4425;50.872;4.712;2023-01-13T03:41:25;11.53;;;3.40;;
8777;SDS011;4425;50.872;4.712;2023-01-13T03:43:56;14.53;;;3.07;;
8777;SDS011;4425;50.872;4.712;2023-01-13T03:46:51;15.83;;;3.53;;
8777;SDS011;4425;50.872;4.712;2023-01-13T03:49:28;18.47;;;3.40;;
8777;SDS011;4425;50.872;4.712;2023-01-13T03:52:00;12.77;;;3.40;;
8777;SDS011;4425;50.872;4.712;2023-01-13T03:54:32;12.37;;;2.73;;
8777;SDS011;4425;50.872;4.712;2023-01-13T03:57:08;13.77;;;3.50;;
8777;SDS011;4425;50.872;4.712;2023-01-13T03:59:38;10.47;;;3.13;;
8777;SDS011;4425;50.872;4.712;2023-01-13T04:02:09;9.60;;;2.90;;
8777;SDS011;4425;50.872;4.712;2023-01-13T04:04:42;11.03;;;2.60;;
8777;SDS011;4425;50.872;4.712;2023-01-13T04:07:14;12.40;;;2.93;;
8777;SDS011;4425;50.872;4.712;2023-01-13T04:09:53;8.27;;;2.60;;
8777;SDS011;4425;50.872;4.712;2023-01-13T04:12:23;6.90;;;2.60;;
8777;SDS011;4425;50.872;4.712;2023-01-13T04:15:13;9.27;;;2.87;;
8777;SDS011;4425;50.872;4.712;2023-01-13T04:17:42;6.53;;;2.20;;
8777;SDS011;4425;50.872;4.712;2023-01-13T04:20:11;9.57;;;2.67;;
8777;SDS011;4425;50.872;4.712;2023-01-13T04:22:39;7.93;;;2.37;;
8777;SDS011;4425;50.872;4.712;2023-01-13T04:25:06;11.50;;;2.77;;
8777;SDS011;4425;50.872;4.712;2023-01-13T04:27:34;9.90;;;2.70;;
8777;SDS011;4425;50.872;4.712;2023-01-13T04:30:02;10.43;;;2.87;;
8777;SDS011;4425;50.872;4.712;2023-01-13T04:32:29;9.97;;;2.70;;
8777;SDS011;4425;50.872;4.712;2023-01-13T04:34:57;10.23;;;2.53;;
8777;SDS011;4425;50.872;4.712;2023-01-13T04:37:26;14.30;;;2.80;;
8777;SDS011;4425;50.872;4.712;2023-01-13T04:39:53;8.23;;;2.50;;
8777;SDS011;4425;50.872;4.712;2023-01-13T04:42:21;10.43;;;2.77;;
8777;SDS011;4425;50.872;4.712;2023-01-13T04:44:49;6.13;;;2.10;;
8777;SDS011;4425;50.872;4.712;2023-01-13T04:47:16;10.00;;;2.53;;
8777;SDS011;4425;50.872;4.712;2023-01-13T04:49:43;9.63;;;2.57;;
8777;SDS011;4425;50.872;4.712;2023-01-13T04:52:10;9.13;;;2.77;;
8777;SDS011;4425;50.872;4.712;2023-01-13T04:54:39;11.67;;;2.80;;
8777;SDS011;4425;50.872;4.712;2023-01-13T04:57:06;13.70;;;2.67;;
8777;SDS011;4425;50.872;4.712;2023-01-13T04:59:35;8.63;;;2.53;;
8777;SDS011;4425;50.872;4.712;2023-01-13T05:02:02;8.57;;;2.60;;
8777;SDS011;4425;50.872;4.712;2023-01-13T05:04:29;9.47;;;2.37;;
8777;SDS011;4425;50.872;4.712;2023-01-13T05:06:56;11.87;;;3.03;;
8777;SDS011;4425;50.872;4.712;2023-01-13T05:09:23;10.80;;;2.97;;
8777;SDS011;4425;50.872;4.712;2023-01-13T05:11:51;8.60;;;2.90;;
8777;SDS011;4425;50.872;4.712;2023-01-13T05:14:37;15.53;;;3.27;;
8777;SDS011;4425;50.872;4.712;2023-01-13T05:17:22;5.17;;;2.20;;
8777;SDS011;4425;50.872;4.712;2023-01-13T05:19:51;6.93;;;2.20;;
8777;SDS011;4425;50.872;4.712;2023-01-13T05:22:18;8.57;;;2.30;;
8777;SDS011;4425;50.872;4.712;2023-01-13T05:25:02;8.47;;;2.17;;
8777;SDS011;4425;50.872;4.712;2023-01-13T05:27:51;6.57;;;2.20;;
8777;SDS011;4425;50.872;4.712;2023-01-13T05:30:20;12.10;;;2.50;;
8777;SDS011;4425;50.872;4.712;2023-01-13T05:32:48;7.00;;;2.20;;
8777;SDS011;4425;50.872;4.712;2023-01-13T05:35:18;9.77;;;2.33;;
8777;SDS011;4425;50.872;4.712;2023-01-13T05:37:46;5.80;;;2.33;;
8777;SDS011;4425;50.872;4.712;2023-01-13T05:40:14;8.87;;;2.57;;
8777;SDS011;4425;50.872;4.712;2023-01-13T05:43:02;9.33;;;2.50;;
8777;SDS011;4425;50.872;4.712;2023-01-13T05:45:48;9.47;;;2.73;;
8777;SDS011;4425;50.872;4.712;2023-01-13T05:48:17;11.90;;;2.87;;
8777;SDS011;4425;50.872;4.712;2023-01-13T05:50:46;10.27;;;2.63;;
8777;SDS011;4425;50.872;4.712;2023-01-13T05:53:15;13.30;;;2.87;;
8777;SDS011;4425;50.872;4.712;2023-01-13T05:55:47;9.53;;;2.70;;
8777;SDS011;4425;50.872;4.712;2023-01-13T05:58:16;11.33;;;2.77;;
8777;SDS011;4425;50.872;4.712;2023-01-13T06:00:45;10.83;;;2.87;;
8777;SDS011;4425;50.872;4.712;2023-01-13T06:03:12;14.70;;;2.97;;
8777;SDS011;4425;50.872;4.712;2023-01-13T06:05:41;7.93;;;2.50;;
8777;SDS011;4425;50.872;4.712;2023-01-13T06:08:09;10.33;;;2.80;;
8777;SDS011;4425;50.872;4.712;2023-01-13T06:10:36;8.90;;;2.50;;
8777;SDS011;4425;50.872;4.712;2023-01-13T06:13:03;8.63;;;2.47;;
8777;SDS011;4425;50.872;4.712;2023-01-13T06:15:32;13.90;;;2.87;;
8777;SDS011;4425;50.872;4.712;2023-01-13T06:18:00;11.13;;;2.50;;
8777;SDS011;4425;50.872;4.712;2023-01-13T06:20:29;9.83;;;2.83;;
8777;SDS011;4425;50.872;4.712;2023-01-13T06:22:56;8.97;;;2.70;;
8777;SDS011;4425;50.872;4.712;2023-01-13T06:25:27;14.40;;;2.53;;
8777;SDS011;4425;50.872;4.712;2023-01-13T06:28:02;16.87;;;3.17;;
8777;SDS011;4425;50.872;4.712;2023-01-13T06:30:30;15.77;;;3.23;;
8777;SDS011;4425;50.872;4.712;2023-01-13T06:33:05;16.60;;;3.00;;
8777;SDS011;4425;50.872;4.712;2023-01-13T06:35:34;13.13;;;3.17;;
8777;SDS011;4425;50.872;4.712;2023-01-13T06:38:05;13.40;;;3.00;;
8777;SDS011;4425;50.872;4.712;2023-01-13T06:40:35;11.27;;;3.53;;
8777;SDS011;4425;50.872;4.712;2023-01-13T06:43:02;16.17;;;3.60;;
8777;SDS011;4425;50.872;4.712;2023-01-13T06:45:43;11.43;;;3.43;;
8777;SDS011;4425;50.872;4.712;2023-01-13T06:48:13;15.93;;;3.77;;
8777;SDS011;4425;50.872;4.712;2023-01-13T06:50:43;15.33;;;3.83;;
8777;SDS011;4425;50.872;4.712;2023-01-13T06:53:11;17.30;;;3.63;;
8777;SDS011;4425;50.872;4.712;2023-01-13T06:55:38;13.03;;;3.57;;
8777;SDS011;4425;50.872;4.712;2023-01-13T06:58:07;22.97;;;4.37;;
8777;SDS011;4425;50.872;4.712;2023-01-13T07:00:34;22.00;;;4.10;;
8777;SDS011;4425;50.872;4.712;2023-01-13T07:03:18;16.30;;;3.90;;
8777;SDS011;4425;50.872;4.712;2023-01-13T07:05:50;21.10;;;4.67;;
8777;SDS011;4425;50.872;4.712;2023-01-13T07:08:18;14.47;;;4.23;;
8777;SDS011;4425;50.872;4.712;2023-01-13T07:10:45;17.33;;;3.97;;
8777;SDS011;4425;50.872;4.712;2023-01-13T07:13:13;21.77;;;4.27;;
8777;SDS011;4425;50.872;4.712;2023-01-13T07:15:59;19.37;;;4.43;;
8777;SDS011;4425;50.872;4.712;2023-01-13T07:18:29;21.83;;;3.93;;
8777;SDS011;4425;50.872;4.712;2023-01-13T07:20:58;19.10;;;4.17;;
8777;SDS011;4425;50.872;4.712;2023-01-13T07:23:26;15.37;;;3.97;;
8777;SDS011;4425;50.872;4.712;2023-01-13T07:25:55;20.97;;;4.40;;
8777;SDS011;4425;50.872;4.712;2023-01-13T07:28:22;18.97;;;4.10;;
8777;SDS011;4425;50.872;4.712;2023-01-13T07:30:50;21.27;;;4.37;;
8777;SDS011;4425;50.872;4.712;2023-01-13T07:33:17;20.73;;;4.80;;
8777;SDS011;4425;50.872;4.712;2023-01-13T07:35:55;24.67;;;4.27;;
8777;SDS011;4425;50.872;4.712;2023-01-13T07:38:25;20.57;;;4.77;;
8777;SDS011;4425;50.872;4.712;2023-01-13T07:40:53;16.43;;;4.20;;
8777;SDS011;4425;50.872;4.712;2023-01-13T07:43:20;17.77;;;3.97;;
8777;SDS011;4425;50.872;4.712;2023-01-13T07:45:58;20.73;;;4.43;;
8777;SDS011;4425;50.872;4.712;2023-01-13T07:48:27;21.17;;;4.30;;
8777;SDS011;4425;50.872;4.712;2023-01-13T07:50:56;12.50;;;3.33;;
8777;SDS011;4425;50.872;4.712;2023-01-13T07:53:26;21.37;;;4.30;;
8777;SDS011;4425;50.872;4.712;2023-01-13T07:55:54;21.30;;;4.20;;
8777;SDS011;4425;50.872;4.712;2023-01-13T07:58:23;28.83;;;4.57;;
8777;SDS011;4425;50.872;4.712;2023-01-13T08:00:50;18.47;;;4.30;;
8777;SDS011;4425;50.872;4.712;2023-01-13T08:03:17;21.73;;;4.50;;
8777;SDS011;4425;50.872;4.712;2023-01-13T08:05:45;22.70;;;3.60;;
8777;SDS011;4425;50.872;4.712;2023-01-13T08:08:18;17.07;;;4.83;;
8777;SDS011;4425;50.872;4.712;2023-01-13T08:10:45;19.23;;;4.27;;
8777;SDS011;4425;50.872;4.712;2023-01-13T08:13:13;19.87;;;4.13;;
8777;SDS011;4425;50.872;4.712;2023-01-13T08:15:46;24.00;;;4.77;;
8777;SDS011;4425;50.872;4.712;2023-01-13T08:18:14;16.07;;;4.10;;
8777;SDS011;4425;50.872;4.712;2023-01-13T08:20:42;25.10;;;4.23;;
8777;SDS011;4425;50.872;4.712;2023-01-13T08:23:10;21.60;;;4.77;;
8777;SDS011;4425;50.872;4.712;2023-01-13T08:25:42;21.40;;;4.83;;
8777;SDS011;4425;50.872;4.712;2023-01-13T08:28:12;21.90;;;4.53;;
8777;SDS011;4425;50.872;4.712;2023-01-13T08:30:44;20.33;;;4.10;;
8777;SDS011;4425;50.872;4.712;2023-01-13T08:33:11;18.43;;;4.27;;
8777;SDS011;4425;50.872;4.712;2023-01-13T08:35:39;18.50;;;4.10;;
8777;SDS011;4425;50.872;4.712;2023-01-13T08:38:07;20.97;;;4.20;;
8777;SDS011;4425;50.872;4.712;2023-01-13T08:40:37;24.27;;;3.97;;
8777;SDS011;4425;50.872;4.712;2023-01-13T08:43:06;18.40;;;4.40;;
8777;SDS011;4425;50.872;4.712;2023-01-13T08:45:33;18.77;;;3.77;;
8777;SDS011;4425;50.872;4.712;2023-01-13T08:48:02;18.73;;;4.10;;
8777;SDS011;4425;50.872;4.712;2023-01-13T08:50:33;22.20;;;4.13;;
8777;SDS011;4425;50.872;4.712;2023-01-13T08:53:03;16.03;;;4.20;;
8777;SDS011;4425;50.872;4.712;2023-01-13T08:55:32;17.10;;;4.13;;
8777;SDS011;4425;50.872;4.712;2023-01-13T08:58:07;16.13;;;3.60;;
8777;SDS011;4425;50.872;4.712;2023-01-13T09:00:34;15.23;;;3.93;;
8777;SDS011;4425;50.872;4.712;2023-01-13T09:03:02;21.43;;;4.60;;
8777;SDS011;4425;50.872;4.712;2023-01-13T09:05:34;18.77;;;4.33;;
8777;SDS011;4425;50.872;4.712;2023-01-13T09:08:02;22.00;;;4.70;;
8777;SDS011;4425;50.872;4.712;2023-01-13T09:10:29;19.73;;;4.10;;
8777;SDS011;4425;50.872;4.712;2023-01-13T09:12:57;18.67;;;4.37;;
8777;SDS011;4425;50.872;4.712;2023-01-13T09:15:37;20.90;;;4.60;;
8777;SDS011;4425;50.872;4.712;2023-01-13T09:18:07;22.37;;;4.67;;
8777;SDS011;4425;50.872;4.712;2023-01-13T09:20:34;20.53;;;4.50;;
8777;SDS011;4425;50.872;4.712;2023-01-13T09:23:02;21.17;;;4.23;;
8777;SDS011;4425;50.872;4.712;2023-01-13T09:25:31;19.50;;;4.30;;
8777;SDS011;4425;50.872;4.712;2023-01-13T09:28:00;17.63;;;3.90;;
8777;SDS011;4425;50.872;4.712;2023-01-13T09:30:29;20.23;;;4.57;;
8777;SDS011;4425;50.872;4.712;2023-01-13T09:32:59;19.87;;;4.77;;
8777;SDS011;4425;50.872;4.712;2023-01-13T09:35:44;18.03;;;4.97;;
8777;SDS011;4425;50.872;4.712;2023-01-13T09:38:11;21.60;;;4.23;;
8777;SDS011;4425;50.872;4.712;2023-01-13T09:40:41;18.03;;;4.70;;
8777;SDS011;4425;50.872;4.712;2023-01-13T09:43:13;27.93;;;4.93;;
8777;SDS011;4425;50.872;4.712;2023-01-13T09:46:03;21.70;;;4.63;;
8777;SDS011;4425;50.872;4.712;2023-01-13T09:48:56;23.33;;;4.60;;
8777;SDS011;4425;50.872;4.712;2023-01-13T09:51:27;17.93;;;4.83;;
8777;SDS011;4425;50.872;4.712;2023-01-13T09:54:00;19.60;;;4.73;;
8777;SDS011;4425;50.872;4.712;2023-01-13T09:56:35;29.23;;;5.30;;
8777;SDS011;4425;50.872;4.712;2023-01-13T09:59:06;20.50;;;4.90;;
8777;SDS011;4425;50.872;4.712;2023-01-13T10:01:38;19.60;;;4.00;;
8777;SDS011;4425;50.872;4.712;2023-01-13T10:04:14;24.53;;;4.47;;
8777;SDS011;4425;50.872;4.712;2023-01-13T10:06:46;20.13;;;4.40;;
8777;SDS011;4425;50.872;4.712;2023-01-13T10:09:17;18.57;;;4.90;;
8777;SDS011;4425;50.872;4.712;2023-01-13T10:11:48;17.47;;;4.73;;
8777;SDS011;4425;50.872;4.712;2023-01-13T10:14:38;18.53;;;4.67;;
8777;SDS011;4425;50.872;4.712;2023-01-13T10:17:20;19.33;;;4.00;;
8777;SDS011;4425;50.872;4.712;2023-01-13T10:20:00;23.57;;;4.40;;
8777;SDS011;4425;50.872;4.712;2023-01-13T10:22:48;15.80;;;3.90;;
8777;SDS011;4425;50.872;4.712;2023-01-13T10:28:18;18.23;;;4.63;;
8777;SDS011;4425;50.872;4.712;2023-01-13T10:33:38;15.07;;;3.90;;
8777;SDS011;4425;50.872;4.712;2023-01-13T10:39:07;18.70;;;4.53;;
8777;SDS011;4425;50.872;4.712;2023-01-13T10:44:54;16.50;;;4.03;;
8777;SDS011;4425;50.872;4.712;2023-01-13T10:50:57;23.63;;;5.37;;
8777;SDS011;4425;50.872;4.712;2023-01-13T10:59:52;25.40;;;5.37;;
8777;SDS011;4425;50.872;4.712;2023-01-13T11:02:34;20.33;;;4.57;;
8777;SDS011;4425;50.872;4.712;2023-01-13T11:05:11;21.80;;;4.70;;
8777;SDS011;4425;50.872;4.712;2023-01-13T11:08:12;21.10;;;4.90;;
8777;SDS011;4425;50.872;4.712;2023-01-13T11:11:23;19.40;;;4.37;;
8777;SDS011;4425;50.872;4.712;2023-01-13T11:20:11;17.80;;;4.53;;
8777;SDS011;4425;50.872;4.712;2023-01-13T11:35:19;19.03;;;4.60;;
8777;SDS011;4425;50.872;4.712;2023-01-13T11:38:05;21.03;;;4.93;;
8777;SDS011;4425;50.872;4.712;2023-01-13T11:41:07;20.90;;;4.47;;
8777;SDS011;4425;50.872;4.712;2023-01-13T11:51:05;18.33;;;4.10;;
8777;SDS011;4425;50.872;4.712;2023-01-13T11:54:04;19.80;;;4.57;;
8777;SDS011;4425;50.872;4.712;2023-01-13T11:57:11;20.93;;;4.40;;
8777;SDS011;4425;50.872;4.712;2023-01-13T12:03:26;13.17;;;4.00;;
8777;SDS011;4425;50.872;4.712;2023-01-13T12:12:30;20.83;;;5.23;;
8777;SDS011;4425;50.872;4.712;2023-01-13T12:15:48;15.37;;;4.73;;
8777;SDS011;4425;50.872;4.712;2023-01-13T12:22:08;17.90;;;4.87;;
8777;SDS011;4425;50.872;4.712;2023-01-13T12:24:59;20.97;;;5.00;;
8777;SDS011;4425;50.872;4.712;2023-01-13T12:27:50;23.47;;;5.33;;
8777;SDS011;4425;50.872;4.712;2023-01-13T12:30:35;18.30;;;4.73;;
8777;SDS011;4425;50.872;4.712;2023-01-13T12:33:12;16.37;;;4.53;;
8777;SDS011;4425;50.872;4.712;2023-01-13T12:38:40;21.70;;;4.20;;
8777;SDS011;4425;50.872;4.712;2023-01-13T12:41:21;20.33;;;4.70;;
8777;SDS011;4425;50.872;4.712;2023-01-13T12:44:03;15.90;;;4.60;;
8777;SDS011;4425;50.872;4.712;2023-01-13T12:46:43;20.30;;;4.93;;
8777;SDS011;4425;50.872;4.712;2023-01-13T12:49:27;18.70;;;4.63;;
8777;SDS011;4425;50.872;4.712;2023-01-13T12:55:10;25.87;;;4.70;;
8777;SDS011;4425;50.872;4.712;2023-01-13T12:57:57;19.37;;;3.97;;
8777;SDS011;4425;50.872;4.712;2023-01-13T13:00:56;21.20;;;4.47;;
8777;SDS011;4425;50.872;4.712;2023-01-13T13:06:45;16.23;;;4.20;;
8777;SDS011;4425;50.872;4.712;2023-01-13T13:09:47;19.73;;;4.57;;
8777;SDS011;4425;50.872;4.712;2023-01-13T13:12:31;18.87;;;3.97;;
8777;SDS011;4425;50.872;4.712;2023-01-13T13:18:43;15.10;;;3.93;;
8777;SDS011;4425;50.872;4.712;2023-01-13T13:28:08;16.53;;;4.37;;
8777;SDS011;4425;50.872;4.712;2023-01-13T13:31:14;14.77;;;4.00;;
8777;SDS011;4425;50.872;4.712;2023-01-13T13:43:59;19.20;;;4.67;;
8777;SDS011;4425;50.872;4.712;2023-01-13T13:46:47;13.80;;;3.80;;
8777;SDS011;4425;50.872;4.712;2023-01-13T13:49:47;17.27;;;4.07;;
8777;SDS011;4425;50.872;4.712;2023-01-13T13:52:21;19.03;;;4.33;;
8777;SDS011;4425;50.872;4.712;2023-01-13T13:54:59;17.60;;;4.10;;
8777;SDS011;4425;50.872;4.712;2023-01-13T13:57:43;19.57;;;4.50;;
8777;SDS011;4425;50.872;4.712;2023-01-13T14:00:33;18.20;;;4.17;;
8777;SDS011;4425;50.872;4.712;2023-01-13T14:03:20;12.33;;;3.07;;
8777;SDS011;4425;50.872;4.712;2023-01-13T14:06:17;15.37;;;4.13;;
8777;SDS011;4425;50.872;4.712;2023-01-13T14:09:01;18.13;;;4.50;;
8777;SDS011;4425;50.872;4.712;2023-01-13T14:12:14;17.63;;;3.57;;
8777;SDS011;4425;50.872;4.712;2023-01-13T14:23:48;16.70;;;3.63;;
8777;SDS011;4425;50.872;4.712;2023-01-13T14:26:30;11.83;;;3.57;;
8777;SDS011;4425;50.872;4.712;2023-01-13T14:29:57;10.50;;;3.37;;
8777;SDS011;4425;50.872;4.712;2023-01-13T14:37:00;14.47;;;4.10;;
8777;SDS011;4425;50.872;4.712;2023-01-13T14:40:00;15.70;;;3.87;;
8777;SDS011;4425;50.872;4.712;2023-01-13T14:43:17;16.87;;;3.90;;
8777;SDS011;4425;50.872;4.712;2023-01-13T14:46:36;13.40;;;3.27;;
8777;SDS011;4425;50.872;4.712;2023-01-13T14:49:37;15.10;;;3.83;;
8777;SDS011;4425;50.872;4.712;2023-01-13T15:02:21;16.77;;;3.57;;
8777;SDS011;4425;50.872;4.712;2023-01-13T15:18:31;15.83;;;3.80;;
8777;SDS011;4425;50.872;4.712;2023-01-13T15:20:59;16.33;;;3.73;;
8777;SDS011;4425;50.872;4.712;2023-01-13T15:23:29;14.07;;;3.87;;
8777;SDS011;4425;50.872;4.712;2023-01-13T15:26:21;17.73;;;4.07;;
8777;SDS011;4425;50.872;4.712;2023-01-13T15:31:23;15.90;;;3.80;;
8777;SDS011;4425;50.872;4.712;2023-01-13T15:33:53;16.60;;;3.50;;
8777;SDS011;4425;50.872;4.712;2023-01-13T15:36:24;22.13;;;3.43;;
8777;SDS011;4425;50.872;4.712;2023-01-13T15:38:52;16.83;;;3.73;;
8777;SDS011;4425;50.872;4.712;2023-01-13T15:41:21;15.00;;;3.60;;
8777;SDS011;4425;50.872;4.712;2023-01-13T15:44:10;20.17;;;3.60;;
8777;SDS011;4425;50.872;4.712;2023-01-13T15:46:57;11.87;;;3.40;;
8777;SDS011;4425;50.872;4.712;2023-01-13T15:52:17;16.80;;;4.20;;
8777;SDS011;4425;50.872;4.712;2023-01-13T15:54:55;19.57;;;4.37;;
8777;SDS011;4425;50.872;4.712;2023-01-13T15:57:25;14.93;;;3.47;;
8777;SDS011;4425;50.872;4.712;2023-01-13T15:59:59;12.93;;;3.50;;
8777;SDS011;4425;50.872;4.712;2023-01-13T16:02:30;11.20;;;3.40;;
8777;SDS011;4425;50.872;4.712;2023-01-13T16:04:59;15.50;;;4.20;;
8777;SDS011;4425;50.872;4.712;2023-01-13T16:07:31;17.00;;;4.20;;
8777;SDS011;4425;50.872;4.712;2023-01-13T16:10:14;11.37;;;3.33;;
8777;SDS011;4425;50.872;4.712;2023-01-13T16:12:59;18.13;;;3.87;;
8777;SDS011;4425;50.872;4.712;2023-01-13T16:15:30;14.97;;;3.67;;
8777;SDS011;4425;50.872;4.712;2023-01-13T16:18:01;11.00;;;3.53;;
8777;SDS011;4425;50.872;4.712;2023-01-13T16:23:44;12.70;;;3.60;;
8777;SDS011;4425;50.872;4.712;2023-01-13T16:26:28;18.83;;;3.43;;
8777;SDS011;4425;50.872;4.712;2023-01-13T16:31:46;12.70;;;3.67;;
8777;SDS011;4425;50.872;4.712;2023-01-13T16:37:18;15.23;;;3.77;;
8777;SDS011;4425;50.872;4.712;2023-01-13T16:40:19;18.67;;;3.77;;
8777;SDS011;4425;50.872;4.712;2023-01-13T16:43:03;11.93;;;3.63;;
8777;SDS011;4425;50.872;4.712;2023-01-13T16:45:44;15.97;;;3.83;;
8777;SDS011;4425;50.872;4.712;2023-01-13T16:48:14;15.90;;;3.63;;
8777;SDS011;4425;50.872;4.712;2023-01-13T16:50:58;15.00;;;3.63;;
8777;SDS011;4425;50.872;4.712;2023-01-13T16:53:42;17.13;;;3.90;;
8777;SDS011;4425;50.872;4.712;2023-01-13T17:29:35;23.30;;;4.97;;
8777;SDS011;4425;50.872;4.712;2023-01-13T17:32:17;15.40;;;4.53;;
8777;SDS011;4425;50.872;4.712;2023-01-13T17:34:59;23.97;;;4.83;;
8777;SDS011;4425;50.872;4.712;2023-01-13T17:37:30;17.80;;;4.83;;
8777;SDS011;4425;50.872;4.712;2023-01-13T17:40:08;20.97;;;5.00;;
8777;SDS011;4425;50.872;4.712;2023-01-13T17:52:12;21.73;;;4.90;;
8777;SDS011;4425;50.872;4.712;2023-01-13T17:55:02;25.77;;;5.53;;
8777;SDS011;4425;50.872;4.712;2023-01-13T17:57:37;21.20;;;4.73;;
8777;SDS011;4425;50.872;4.712;2023-01-13T18:02:53;19.50;;;5.33;;
8777;SDS011;4425;50.872;4.712;2023-01-13T18:05:46;24.63;;;5.77;;
8777;SDS011;4425;50.872;4.712;2023-01-13T18:08:36;25.00;;;5.83;;
8777;SDS011;4425;50.872;4.712;2023-01-13T18:11:08;20.63;;;4.80;;
8777;SDS011;4425;50.872;4.712;2023-01-13T18:13:45;22.97;;;5.80;;
8777;SDS011;4425;50.872;4.712;2023-01-13T18:16:27;18.53;;;4.80;;
8777;SDS011;4425;50.872;4.712;2023-01-13T18:19:10;23.67;;;5.70;;
8777;SDS011;4425;50.872;4.712;2023-01-13T18:21:55;20.60;;;5.43;;
8777;SDS011;4425;50.872;4.712;2023-01-13T18:27:59;27.63;;;5.97;;
8777;SDS011;4425;50.872;4.712;2023-01-13T18:30:29;21.47;;;5.50;;
8777;SDS011;4425;50.872;4.712;2023-01-13T18:33:09;22.00;;;5.80;;
8777;SDS011;4425;50.872;4.712;2023-01-13T18:38:23;22.40;;;5.37;;
8777;SDS011;4425;50.872;4.712;2023-01-13T18:44:27;20.47;;;4.60;;
8777;SDS011;4425;50.872;4.712;2023-01-13T18:46:56;23.07;;;5.33;;
8777;SDS011;4425;50.872;4.712;2023-01-13T18:49:33;26.13;;;5.50;;
8777;SDS011;4425;50.872;4.712;2023-01-13T18:52:14;19.00;;;4.90;;
8777;SDS011;4425;50.872;4.712;2023-01-13T18:55:00;28.10;;;5.90;;
8777;SDS011;4425;50.872;4.712;2023-01-13T18:57:32;28.90;;;5.83;;
8777;SDS011;4425;50.872;4.712;2023-01-13T19:03:02;25.30;;;5.57;;
8777;SDS011;4425;50.872;4.712;2023-01-13T19:05:32;26.27;;;6.07;;
8777;SDS011;4425;50.872;4.712;2023-01-13T19:08:00;26.17;;;5.47;;
8777;SDS011;4425;50.872;4.712;2023-01-13T19:10:29;25.63;;;5.73;;
8777;SDS011;4425;50.872;4.712;2023-01-13T19:12:57;27.37;;;6.53;;
8777;SDS011;4425;50.872;4.712;2023-01-13T19:18:20;31.87;;;6.63;;
8777;SDS011;4425;50.872;4.712;2023-01-13T19:20:54;25.20;;;6.07;;